Aktuální počasí v Česku a ve světě - METAR

Seznam meteostanic umístěných nejčasteji na letišti v ČR a ve světě

Vyhledat místa podle abecedy:
A B C D E F G H I J K L M N O P Q R S T U V W X Y Z

Filtrovat:

ID stanice:
a/nebo
Název místa (fulltext):
 
Místo (ID)Naposledy načteno 
Verona (LIPX) 18.05.2021 10:50 UTC Zobrazit METAR
LIPX 181050Z VRB05KT CAVOK 21/10 Q1012
Vienna (LOWW) 18.05.2021 10:50 UTC Zobrazit METAR
LOWW 181050Z 28010KT 9999 FEW034 SCT040 BKN050 12/09 Q1012 RERA NOSIG
Vientiane (VLVT) 18.05.2021 11:00 UTC Zobrazit METAR
VLVT 181100Z 09006KT 8000 FEW020 BKN050 34/24 Q1004 NOSIG
Vieuxfort (TLPL) 18.05.2021 11:00 UTC Zobrazit METAR
TLPL 181100Z 07012KT 9999 SCT024 28/23 Q1016 TEMPO SHRA
Vilnius (EYVI) 18.05.2021 08:50 UTC Zobrazit METAR
EYVI 180850Z 33008KT 9999 -RA BKN005 OVC030 13/12 Q1001 NOSIG
Vitebsk (UMII) Zatím nenačteno  
Volgograd (URWW) Zatím nenačteno  
Voronezh (UUOO) Zatím nenačteno  
Wake Island (PWAK) 18.05.2021 10:58 UTC Zobrazit METAR
PWAK 181058Z AUTO 07011KT 9999 SCT021 27/22 A2998 RMK AO2 SLP158 T02680222 $
Warsaw (EPWA) 18.05.2021 11:00 UTC Zobrazit METAR
EPWA 181100Z 28015KT 9999 FEW015 15/11 Q1004 NOSIG
Washington (KIAD) 18.05.2021 10:52 UTC Zobrazit METAR
KIAD 181052Z 00000KT 10SM FEW130 SCT250 10/08 A3035 RMK AO2 SLP277 T01000083 $
Wellington (NZWN) 18.05.2021 02:00 UTC Zobrazit METAR
NZWN 180200Z AUTO 22018KT 9999 FEW033/// 12/07 Q0998 BECMG 32015G25KT
Windhoek (FYWH) 18.05.2021 11:00 UTC Zobrazit METAR
FYWH 181100Z 03009KT CAVOK 23/03 Q1027 NOSIG
Wroclaw (EPWR) 18.05.2021 09:00 UTC Zobrazit METAR
EPWR 180900Z 31013KT 9999 FEW022 BKN030 15/10 Q1009
Yamoussoukro (DIYO) 18.05.2021 11:00 UTC Zobrazit METAR
DIYO 181100Z 20006KT 9999 BKN013 29/24 Q1014 NOSIG
Yangon (VYYY) 18.05.2021 11:00 UTC Zobrazit METAR
VYYY 181100Z 19005KT 8000 FEW020 SCT230 36/24 Q1004 NOSIG
Yaounde (FKYS) 18.05.2021 11:00 UTC Zobrazit METAR
FKYS 181100Z VRB01KT 8000 SCT013 24/22 Q1018 NOSIG
Yerevan (UGEE) Zatím nenačteno  
Zadar (LDZD) 18.05.2021 11:00 UTC Zobrazit METAR
LDZD 181100Z 24009KT 200V280 9999 FEW035 21/08 Q1014 NOSIG
Zagreb (LDZA) 18.05.2021 10:00 UTC Zobrazit METAR
LDZA 181000Z VRB03KT 9999 FEW045 20/09 Q1013 NOSIG
Zaragoza (LEZG) 18.05.2021 11:00 UTC Zobrazit METAR
LEZG 181100Z 07006KT 030V110 CAVOK 22/07 Q1017
Zhezkazgan (UAKD) Zatím nenačteno  
Zurich (LSZH) 18.05.2021 10:50 UTC Zobrazit METAR
LSZH 181050Z 30007KT 250V340 9999 VCSH FEW025 SCT040 12/07 Q1017 TEMPO SHRA
Předchozí 1 ... 7 8 9
Reklama

Reklama


Newslettter

Počasí na Váš email

Emaily jsou bez reklamy a bez spamu



Odhlásit newsletter



Kontaktujte nás

Kontaktujte Slunečno.cz

Kontaktujte provozovatele Slunecno.cz

Další české internetové stránky (nejen) o počasí najdete v katalogu TOPlist - weby o počasí nebo vyhledejte na internetu, co jste tu na Počasí Slunečno Slunečnu zatím nenašli:
Přidat mezzi oblíbené stránkyPřidat Slunečno.cz do oblíbených | Nastavit jako HOMEPAGENastavit Slunečno.cz jako HOMEPAGE

Posunout stránku nahoru Posunout stránku nahoru Posunout stránku nahoru
Reklama